sensor_id;sensor_type;location;lat;lon;timestamp;temperature;humidity
19538;DHT22;9914;51.008;4.300;2023-07-22T00:02:02;18.20;99.90
19538;DHT22;9914;51.008;4.300;2023-07-22T00:04:28;18.20;99.90
19538;DHT22;9914;51.008;4.300;2023-07-22T00:06:54;18.20;99.90
19538;DHT22;9914;51.008;4.300;2023-07-22T00:09:20;18.30;99.90
19538;DHT22;9914;51.008;4.300;2023-07-22T00:11:45;18.30;99.90
19538;DHT22;9914;51.008;4.300;2023-07-22T00:14:11;18.30;99.90
19538;DHT22;9914;51.008;4.300;2023-07-22T00:16:36;18.20;99.90
19538;DHT22;9914;51.008;4.300;2023-07-22T00:19:03;18.20;99.90
19538;DHT22;9914;51.008;4.300;2023-07-22T00:21:28;18.10;99.90
19538;DHT22;9914;51.008;4.300;2023-07-22T00:23:54;18.20;99.90
19538;DHT22;9914;51.008;4.300;2023-07-22T00:26:20;18.20;99.90
19538;DHT22;9914;51.008;4.300;2023-07-22T00:28:45;18.20;99.90
19538;DHT22;9914;51.008;4.300;2023-07-22T00:31:11;18.20;99.90
19538;DHT22;9914;51.008;4.300;2023-07-22T00:33:37;18.20;99.90
19538;DHT22;9914;51.008;4.300;2023-07-22T00:36:02;18.30;99.90
19538;DHT22;9914;51.008;4.300;2023-07-22T00:38:28;18.20;99.90
19538;DHT22;9914;51.008;4.300;2023-07-22T00:40:54;18.10;99.90
19538;DHT22;9914;51.008;4.300;2023-07-22T00:43:19;18.20;99.90
19538;DHT22;9914;51.008;4.300;2023-07-22T00:45:45;18.20;99.90
19538;DHT22;9914;51.008;4.300;2023-07-22T00:48:11;18.20;99.90
19538;DHT22;9914;51.008;4.300;2023-07-22T00:50:38;18.10;99.90
19538;DHT22;9914;51.008;4.300;2023-07-22T00:53:05;18.10;99.90
19538;DHT22;9914;51.008;4.300;2023-07-22T00:55:33;18.10;99.90
19538;DHT22;9914;51.008;4.300;2023-07-22T00:58:00;18.10;99.90
19538;DHT22;9914;51.008;4.300;2023-07-22T01:00:25;18.10;99.90
19538;DHT22;9914;51.008;4.300;2023-07-22T01:02:51;18.10;99.90
19538;DHT22;9914;51.008;4.300;2023-07-22T01:05:17;18.20;99.90
19538;DHT22;9914;51.008;4.300;2023-07-22T01:07:43;18.10;99.90
19538;DHT22;9914;51.008;4.300;2023-07-22T01:10:09;18.10;99.90
19538;DHT22;9914;51.008;4.300;2023-07-22T01:12:35;18.00;99.90
19538;DHT22;9914;51.008;4.300;2023-07-22T01:15:02;18.10;99.90
19538;DHT22;9914;51.008;4.300;2023-07-22T01:17:33;18.10;99.90
19538;DHT22;9914;51.008;4.300;2023-07-22T01:20:00;18.10;99.90
19538;DHT22;9914;51.008;4.300;2023-07-22T01:22:27;18.10;99.90
19538;DHT22;9914;51.008;4.300;2023-07-22T01:24:54;18.00;99.90
19538;DHT22;9914;51.008;4.300;2023-07-22T01:27:21;18.00;99.90
19538;DHT22;9914;51.008;4.300;2023-07-22T01:29:46;18.00;99.90
19538;DHT22;9914;51.008;4.300;2023-07-22T01:32:15;18.10;99.90
19538;DHT22;9914;51.008;4.300;2023-07-22T01:34:42;18.00;99.90
19538;DHT22;9914;51.008;4.300;2023-07-22T01:37:08;18.10;99.90
19538;DHT22;9914;51.008;4.300;2023-07-22T01:39:35;18.00;99.90
19538;DHT22;9914;51.008;4.300;2023-07-22T01:42:01;17.90;99.90
19538;DHT22;9914;51.008;4.300;2023-07-22T01:44:27;17.80;99.90
19538;DHT22;9914;51.008;4.300;2023-07-22T01:46:53;17.70;99.90
19538;DHT22;9914;51.008;4.300;2023-07-22T01:49:19;17.70;99.90
19538;DHT22;9914;51.008;4.300;2023-07-22T01:51:45;17.70;99.90
19538;DHT22;9914;51.008;4.300;2023-07-22T01:54:11;17.70;99.90
19538;DHT22;9914;51.008;4.300;2023-07-22T01:56:38;17.70;99.90
19538;DHT22;9914;51.008;4.300;2023-07-22T01:59:04;17.60;99.90
19538;DHT22;9914;51.008;4.300;2023-07-22T02:01:30;17.60;99.90
19538;DHT22;9914;51.008;4.300;2023-07-22T02:03:56;17.60;99.90
19538;DHT22;9914;51.008;4.300;2023-07-22T02:06:22;17.60;99.90
19538;DHT22;9914;51.008;4.300;2023-07-22T02:08:47;17.50;99.90
19538;DHT22;9914;51.008;4.300;2023-07-22T02:11:13;17.50;99.90
19538;DHT22;9914;51.008;4.300;2023-07-22T02:13:39;17.50;99.90
19538;DHT22;9914;51.008;4.300;2023-07-22T02:16:05;17.40;99.90
19538;DHT22;9914;51.008;4.300;2023-07-22T02:18:31;17.40;99.90
19538;DHT22;9914;51.008;4.300;2023-07-22T02:20:57;17.40;99.90
19538;DHT22;9914;51.008;4.300;2023-07-22T02:23:24;17.40;99.90
19538;DHT22;9914;51.008;4.300;2023-07-22T02:25:50;17.30;99.90
19538;DHT22;9914;51.008;4.300;2023-07-22T02:28:16;17.30;99.90
19538;DHT22;9914;51.008;4.300;2023-07-22T02:30:47;17.20;99.90
19538;DHT22;9914;51.008;4.300;2023-07-22T02:33:13;17.20;99.90
19538;DHT22;9914;51.008;4.300;2023-07-22T02:35:40;17.10;99.90
19538;DHT22;9914;51.008;4.300;2023-07-22T02:38:06;17.10;99.90
19538;DHT22;9914;51.008;4.300;2023-07-22T02:40:35;17.00;99.90
19538;DHT22;9914;51.008;4.300;2023-07-22T02:43:00;17.00;99.90
19538;DHT22;9914;51.008;4.300;2023-07-22T02:45:26;17.00;99.90
19538;DHT22;9914;51.008;4.300;2023-07-22T02:47:52;17.00;99.90
19538;DHT22;9914;51.008;4.300;2023-07-22T02:50:18;16.90;99.90
19538;DHT22;9914;51.008;4.300;2023-07-22T02:52:43;17.00;99.90
19538;DHT22;9914;51.008;4.300;2023-07-22T02:55:12;16.90;99.90
19538;DHT22;9914;51.008;4.300;2023-07-22T02:57:39;16.90;99.90
19538;DHT22;9914;51.008;4.300;2023-07-22T03:00:05;16.80;99.90
19538;DHT22;9914;51.008;4.300;2023-07-22T03:02:37;16.80;99.90
19538;DHT22;9914;51.008;4.300;2023-07-22T03:05:04;16.80;99.90
19538;DHT22;9914;51.008;4.300;2023-07-22T03:07:33;16.70;99.90
19538;DHT22;9914;51.008;4.300;2023-07-22T03:09:59;16.70;99.90
19538;DHT22;9914;51.008;4.300;2023-07-22T03:12:25;16.60;99.90
19538;DHT22;9914;51.008;4.300;2023-07-22T03:14:50;16.60;99.90
19538;DHT22;9914;51.008;4.300;2023-07-22T03:17:18;16.60;99.90
19538;DHT22;9914;51.008;4.300;2023-07-22T03:19:43;16.60;99.90
19538;DHT22;9914;51.008;4.300;2023-07-22T03:22:10;16.50;99.90
19538;DHT22;9914;51.008;4.300;2023-07-22T03:24:36;16.60;99.90
19538;DHT22;9914;51.008;4.300;2023-07-22T03:27:02;16.60;99.90
19538;DHT22;9914;51.008;4.300;2023-07-22T03:29:28;16.60;99.90
19538;DHT22;9914;51.008;4.300;2023-07-22T03:31:53;16.60;99.90
19538;DHT22;9914;51.008;4.300;2023-07-22T03:34:19;16.60;99.90
19538;DHT22;9914;51.008;4.300;2023-07-22T03:36:45;16.50;99.90
19538;DHT22;9914;51.008;4.300;2023-07-22T03:39:11;16.40;99.90
19538;DHT22;9914;51.008;4.300;2023-07-22T03:41:37;16.30;99.90
19538;DHT22;9914;51.008;4.300;2023-07-22T03:44:03;16.20;99.90
19538;DHT22;9914;51.008;4.300;2023-07-22T03:46:28;16.20;99.90
19538;DHT22;9914;51.008;4.300;2023-07-22T03:48:54;16.10;99.90
19538;DHT22;9914;51.008;4.300;2023-07-22T03:51:20;16.10;99.90
19538;DHT22;9914;51.008;4.300;2023-07-22T03:53:45;16.00;99.90
19538;DHT22;9914;51.008;4.300;2023-07-22T03:56:11;15.90;99.90
19538;DHT22;9914;51.008;4.300;2023-07-22T03:58:37;15.90;99.90
19538;DHT22;9914;51.008;4.300;2023-07-22T04:01:02;15.90;99.90
19538;DHT22;9914;51.008;4.300;2023-07-22T04:03:28;15.90;99.90
19538;DHT22;9914;51.008;4.300;2023-07-22T04:05:57;16.00;99.90
19538;DHT22;9914;51.008;4.300;2023-07-22T04:08:22;16.00;99.90
19538;DHT22;9914;51.008;4.300;2023-07-22T04:10:53;16.00;99.90
19538;DHT22;9914;51.008;4.300;2023-07-22T04:13:19;16.00;99.90
19538;DHT22;9914;51.008;4.300;2023-07-22T04:15:49;16.10;99.90
19538;DHT22;9914;51.008;4.300;2023-07-22T04:18:15;16.00;99.90
19538;DHT22;9914;51.008;4.300;2023-07-22T04:20:41;16.10;99.90
19538;DHT22;9914;51.008;4.300;2023-07-22T04:23:07;16.10;99.90
19538;DHT22;9914;51.008;4.300;2023-07-22T04:25:33;16.10;99.90
19538;DHT22;9914;51.008;4.300;2023-07-22T04:28:00;16.10;99.90
19538;DHT22;9914;51.008;4.300;2023-07-22T04:30:25;16.20;99.90
19538;DHT22;9914;51.008;4.300;2023-07-22T04:32:51;16.20;99.90
19538;DHT22;9914;51.008;4.300;2023-07-22T04:35:16;16.20;99.90
19538;DHT22;9914;51.008;4.300;2023-07-22T04:37:43;16.30;99.90
19538;DHT22;9914;51.008;4.300;2023-07-22T04:40:11;16.30;99.90
19538;DHT22;9914;51.008;4.300;2023-07-22T04:42:41;16.20;99.90
19538;DHT22;9914;51.008;4.300;2023-07-22T04:45:08;16.30;99.90
19538;DHT22;9914;51.008;4.300;2023-07-22T04:47:35;16.30;99.90
19538;DHT22;9914;51.008;4.300;2023-07-22T04:50:02;16.20;99.90
19538;DHT22;9914;51.008;4.300;2023-07-22T04:52:27;16.20;99.90
19538;DHT22;9914;51.008;4.300;2023-07-22T04:54:53;16.30;99.90
19538;DHT22;9914;51.008;4.300;2023-07-22T04:57:20;16.30;99.90
19538;DHT22;9914;51.008;4.300;2023-07-22T04:59:46;16.30;99.90
19538;DHT22;9914;51.008;4.300;2023-07-22T05:02:12;16.30;99.90
19538;DHT22;9914;51.008;4.300;2023-07-22T05:04:38;16.40;99.90
19538;DHT22;9914;51.008;4.300;2023-07-22T05:07:04;16.40;99.90
19538;DHT22;9914;51.008;4.300;2023-07-22T05:09:29;16.50;99.90
19538;DHT22;9914;51.008;4.300;2023-07-22T05:11:55;16.50;99.90
19538;DHT22;9914;51.008;4.300;2023-07-22T05:14:20;16.50;99.90
19538;DHT22;9914;51.008;4.300;2023-07-22T05:16:46;16.50;99.90
19538;DHT22;9914;51.008;4.300;2023-07-22T05:19:12;16.40;99.90
19538;DHT22;9914;51.008;4.300;2023-07-22T05:21:37;16.40;99.90
19538;DHT22;9914;51.008;4.300;2023-07-22T05:24:03;16.40;99.90
19538;DHT22;9914;51.008;4.300;2023-07-22T05:26:28;16.40;99.90
19538;DHT22;9914;51.008;4.300;2023-07-22T05:28:54;16.40;99.90
19538;DHT22;9914;51.008;4.300;2023-07-22T05:31:20;16.30;99.90
19538;DHT22;9914;51.008;4.300;2023-07-22T05:33:45;16.30;99.90
19538;DHT22;9914;51.008;4.300;2023-07-22T05:36:11;16.20;99.90
19538;DHT22;9914;51.008;4.300;2023-07-22T05:38:36;16.20;99.90
19538;DHT22;9914;51.008;4.300;2023-07-22T05:41:02;16.30;99.90
19538;DHT22;9914;51.008;4.300;2023-07-22T05:43:28;16.40;99.90
19538;DHT22;9914;51.008;4.300;2023-07-22T05:45:53;16.50;99.90
19538;DHT22;9914;51.008;4.300;2023-07-22T05:48:19;16.50;99.90
19538;DHT22;9914;51.008;4.300;2023-07-22T05:50:46;16.60;99.90
19538;DHT22;9914;51.008;4.300;2023-07-22T05:53:13;16.70;99.90
19538;DHT22;9914;51.008;4.300;2023-07-22T05:55:38;16.70;99.90
19538;DHT22;9914;51.008;4.300;2023-07-22T05:58:04;16.80;99.90
19538;DHT22;9914;51.008;4.300;2023-07-22T06:00:33;17.00;99.90
19538;DHT22;9914;51.008;4.300;2023-07-22T06:02:59;17.20;99.90
19538;DHT22;9914;51.008;4.300;2023-07-22T06:05:25;17.40;99.90
19538;DHT22;9914;51.008;4.300;2023-07-22T06:07:50;17.50;99.90
19538;DHT22;9914;51.008;4.300;2023-07-22T06:10:16;17.60;99.90
19538;DHT22;9914;51.008;4.300;2023-07-22T06:12:42;17.70;99.90
19538;DHT22;9914;51.008;4.300;2023-07-22T06:15:08;17.90;99.90
19538;DHT22;9914;51.008;4.300;2023-07-22T06:17:33;17.90;99.90
19538;DHT22;9914;51.008;4.300;2023-07-22T06:20:00;18.00;99.90
19538;DHT22;9914;51.008;4.300;2023-07-22T06:22:25;18.00;99.90
19538;DHT22;9914;51.008;4.300;2023-07-22T06:24:51;18.10;99.90
19538;DHT22;9914;51.008;4.300;2023-07-22T06:27:16;18.10;99.90
19538;DHT22;9914;51.008;4.300;2023-07-22T06:29:42;18.20;99.90
19538;DHT22;9914;51.008;4.300;2023-07-22T06:32:08;18.20;99.90
19538;DHT22;9914;51.008;4.300;2023-07-22T06:34:33;18.20;99.90
19538;DHT22;9914;51.008;4.300;2023-07-22T06:36:59;18.20;99.90
19538;DHT22;9914;51.008;4.300;2023-07-22T06:39:25;18.20;99.90
19538;DHT22;9914;51.008;4.300;2023-07-22T06:41:50;18.30;99.90
19538;DHT22;9914;51.008;4.300;2023-07-22T06:44:16;18.40;99.90
19538;DHT22;9914;51.008;4.300;2023-07-22T06:46:42;18.50;99.90
19538;DHT22;9914;51.008;4.300;2023-07-22T06:49:07;18.60;99.90
19538;DHT22;9914;51.008;4.300;2023-07-22T06:51:33;18.70;99.90
19538;DHT22;9914;51.008;4.300;2023-07-22T06:53:58;18.80;99.90
19538;DHT22;9914;51.008;4.300;2023-07-22T06:56:24;18.80;99.90
19538;DHT22;9914;51.008;4.300;2023-07-22T06:58:51;18.90;99.90
19538;DHT22;9914;51.008;4.300;2023-07-22T07:01:17;19.00;99.90
19538;DHT22;9914;51.008;4.300;2023-07-22T07:03:42;19.10;99.90
19538;DHT22;9914;51.008;4.300;2023-07-22T07:06:08;19.00;99.90
19538;DHT22;9914;51.008;4.300;2023-07-22T07:08:33;18.90;99.90
19538;DHT22;9914;51.008;4.300;2023-07-22T07:11:00;18.90;99.90
19538;DHT22;9914;51.008;4.300;2023-07-22T07:13:28;18.90;99.90
19538;DHT22;9914;51.008;4.300;2023-07-22T07:15:54;19.00;99.90
19538;DHT22;9914;51.008;4.300;2023-07-22T07:18:20;19.00;99.90
19538;DHT22;9914;51.008;4.300;2023-07-22T07:20:46;19.00;99.90
19538;DHT22;9914;51.008;4.300;2023-07-22T07:23:13;19.10;99.90
19538;DHT22;9914;51.008;4.300;2023-07-22T07:25:39;19.10;99.90
19538;DHT22;9914;51.008;4.300;2023-07-22T07:28:04;19.20;99.90
19538;DHT22;9914;51.008;4.300;2023-07-22T07:30:31;19.10;99.90
19538;DHT22;9914;51.008;4.300;2023-07-22T07:32:57;19.20;99.90
19538;DHT22;9914;51.008;4.300;2023-07-22T07:35:23;19.20;99.90
19538;DHT22;9914;51.008;4.300;2023-07-22T07:37:49;19.20;99.90
19538;DHT22;9914;51.008;4.300;2023-07-22T07:40:15;19.00;99.90
19538;DHT22;9914;51.008;4.300;2023-07-22T07:42:40;19.00;99.90
19538;DHT22;9914;51.008;4.300;2023-07-22T07:45:07;18.90;99.90
19538;DHT22;9914;51.008;4.300;2023-07-22T07:47:33;18.80;99.90
19538;DHT22;9914;51.008;4.300;2023-07-22T07:49:59;19.00;99.90
19538;DHT22;9914;51.008;4.300;2023-07-22T07:52:24;19.00;99.90
19538;DHT22;9914;51.008;4.300;2023-07-22T07:54:50;19.00;99.90
19538;DHT22;9914;51.008;4.300;2023-07-22T07:57:16;19.10;99.90
19538;DHT22;9914;51.008;4.300;2023-07-22T07:59:41;19.20;99.90
19538;DHT22;9914;51.008;4.300;2023-07-22T08:02:07;19.30;99.90
19538;DHT22;9914;51.008;4.300;2023-07-22T08:04:35;19.30;99.90
19538;DHT22;9914;51.008;4.300;2023-07-22T08:07:01;19.20;99.90
19538;DHT22;9914;51.008;4.300;2023-07-22T08:09:29;19.10;99.90
19538;DHT22;9914;51.008;4.300;2023-07-22T08:11:55;19.30;99.90
19538;DHT22;9914;51.008;4.300;2023-07-22T08:14:20;19.50;99.90
19538;DHT22;9914;51.008;4.300;2023-07-22T08:16:46;19.80;99.90
19538;DHT22;9914;51.008;4.300;2023-07-22T08:19:11;19.90;99.90
19538;DHT22;9914;51.008;4.300;2023-07-22T08:21:37;20.00;99.90
19538;DHT22;9914;51.008;4.300;2023-07-22T08:24:04;20.00;99.90
19538;DHT22;9914;51.008;4.300;2023-07-22T08:26:29;19.90;99.90
19538;DHT22;9914;51.008;4.300;2023-07-22T08:28:55;20.00;99.90
19538;DHT22;9914;51.008;4.300;2023-07-22T08:31:21;19.90;99.90
19538;DHT22;9914;51.008;4.300;2023-07-22T08:33:46;19.90;99.90
19538;DHT22;9914;51.008;4.300;2023-07-22T08:36:12;20.10;99.90
19538;DHT22;9914;51.008;4.300;2023-07-22T08:38:38;20.20;99.90
19538;DHT22;9914;51.008;4.300;2023-07-22T08:41:03;20.50;99.90
19538;DHT22;9914;51.008;4.300;2023-07-22T08:43:29;20.60;99.90
19538;DHT22;9914;51.008;4.300;2023-07-22T08:45:59;20.80;99.90
19538;DHT22;9914;51.008;4.300;2023-07-22T08:48:26;21.00;99.90
19538;DHT22;9914;51.008;4.300;2023-07-22T08:51:18;21.00;99.90
19538;DHT22;9914;51.008;4.300;2023-07-22T08:53:44;21.00;99.90
19538;DHT22;9914;51.008;4.300;2023-07-22T08:56:11;21.10;99.90
19538;DHT22;9914;51.008;4.300;2023-07-22T08:58:38;21.10;99.90
19538;DHT22;9914;51.008;4.300;2023-07-22T09:01:05;21.10;99.90
19538;DHT22;9914;51.008;4.300;2023-07-22T09:03:31;21.00;99.90
19538;DHT22;9914;51.008;4.300;2023-07-22T09:05:57;20.70;99.90
19538;DHT22;9914;51.008;4.300;2023-07-22T09:08:23;20.80;99.90
19538;DHT22;9914;51.008;4.300;2023-07-22T09:10:49;20.80;99.90
19538;DHT22;9914;51.008;4.300;2023-07-22T09:13:17;20.90;99.90
19538;DHT22;9914;51.008;4.300;2023-07-22T09:15:45;20.90;99.90
19538;DHT22;9914;51.008;4.300;2023-07-22T09:18:11;21.00;99.90
19538;DHT22;9914;51.008;4.300;2023-07-22T09:20:36;21.20;99.90
19538;DHT22;9914;51.008;4.300;2023-07-22T09:23:02;21.30;99.90
19538;DHT22;9914;51.008;4.300;2023-07-22T09:25:28;21.50;99.90
19538;DHT22;9914;51.008;4.300;2023-07-22T09:27:57;21.70;99.90
19538;DHT22;9914;51.008;4.300;2023-07-22T09:30:37;21.90;99.90
19538;DHT22;9914;51.008;4.300;2023-07-22T09:33:19;22.00;99.90
19538;DHT22;9914;51.008;4.300;2023-07-22T09:35:47;22.20;99.90
19538;DHT22;9914;51.008;4.300;2023-07-22T09:38:13;22.00;99.90
19538;DHT22;9914;51.008;4.300;2023-07-22T09:40:41;22.00;99.90
19538;DHT22;9914;51.008;4.300;2023-07-22T09:43:10;22.20;99.90
19538;DHT22;9914;51.008;4.300;2023-07-22T09:45:36;22.40;99.90
19538;DHT22;9914;51.008;4.300;2023-07-22T09:48:03;22.70;99.90
19538;DHT22;9914;51.008;4.300;2023-07-22T09:50:29;22.70;99.90
19538;DHT22;9914;51.008;4.300;2023-07-22T09:52:56;22.70;99.90
19538;DHT22;9914;51.008;4.300;2023-07-22T09:55:28;22.90;99.90
19538;DHT22;9914;51.008;4.300;2023-07-22T09:57:59;23.20;99.90
19538;DHT22;9914;51.008;4.300;2023-07-22T10:00:32;23.20;99.90
19538;DHT22;9914;51.008;4.300;2023-07-22T10:02:59;23.30;99.90
19538;DHT22;9914;51.008;4.300;2023-07-22T10:05:26;23.30;99.90
19538;DHT22;9914;51.008;4.300;2023-07-22T10:07:56;23.50;99.90
19538;DHT22;9914;51.008;4.300;2023-07-22T10:10:42;23.50;99.90
19538;DHT22;9914;51.008;4.300;2023-07-22T10:13:09;23.40;99.90
19538;DHT22;9914;51.008;4.300;2023-07-22T10:15:36;23.30;99.90
19538;DHT22;9914;51.008;4.300;2023-07-22T10:18:03;22.80;99.90
19538;DHT22;9914;51.008;4.300;2023-07-22T10:20:31;22.90;99.90
19538;DHT22;9914;51.008;4.300;2023-07-22T10:23:00;23.00;99.90
19538;DHT22;9914;51.008;4.300;2023-07-22T10:25:26;23.20;99.90
19538;DHT22;9914;51.008;4.300;2023-07-22T10:27:52;23.30;99.90
19538;DHT22;9914;51.008;4.300;2023-07-22T10:30:18;23.30;99.90
19538;DHT22;9914;51.008;4.300;2023-07-22T10:32:53;23.20;99.90
19538;DHT22;9914;51.008;4.300;2023-07-22T10:38:16;23.30;99.90
19538;DHT22;9914;51.008;4.300;2023-07-22T10:40:50;23.40;99.90
19538;DHT22;9914;51.008;4.300;2023-07-22T10:43:18;23.40;99.90
19538;DHT22;9914;51.008;4.300;2023-07-22T10:45:50;23.60;99.90
19538;DHT22;9914;51.008;4.300;2023-07-22T10:48:17;23.80;99.90
19538;DHT22;9914;51.008;4.300;2023-07-22T10:50:44;23.70;99.90
19538;DHT22;9914;51.008;4.300;2023-07-22T10:53:28;23.70;99.90
19538;DHT22;9914;51.008;4.300;2023-07-22T10:58:33;23.60;99.90
19538;DHT22;9914;51.008;4.300;2023-07-22T11:01:22;23.80;99.90
19538;DHT22;9914;51.008;4.300;2023-07-22T11:04:25;23.70;99.90
19538;DHT22;9914;51.008;4.300;2023-07-22T11:07:04;23.70;99.90
19538;DHT22;9914;51.008;4.300;2023-07-22T11:12:17;24.00;99.90
19538;DHT22;9914;51.008;4.300;2023-07-22T11:14:52;24.40;99.90
19538;DHT22;9914;51.008;4.300;2023-07-22T11:17:30;24.70;99.90
19538;DHT22;9914;51.008;4.300;2023-07-22T11:19:57;24.80;99.90
19538;DHT22;9914;51.008;4.300;2023-07-22T11:22:23;24.90;99.90
19538;DHT22;9914;51.008;4.300;2023-07-22T11:24:48;24.80;99.90
19538;DHT22;9914;51.008;4.300;2023-07-22T11:27:14;24.70;99.90
19538;DHT22;9914;51.008;4.300;2023-07-22T11:29:40;24.50;99.90
19538;DHT22;9914;51.008;4.300;2023-07-22T11:32:07;24.50;99.90
19538;DHT22;9914;51.008;4.300;2023-07-22T11:34:40;24.30;99.90
19538;DHT22;9914;51.008;4.300;2023-07-22T11:37:06;24.10;99.90
19538;DHT22;9914;51.008;4.300;2023-07-22T11:39:32;23.90;99.90
19538;DHT22;9914;51.008;4.300;2023-07-22T11:42:00;23.90;99.90
19538;DHT22;9914;51.008;4.300;2023-07-22T11:44:27;23.80;99.90
19538;DHT22;9914;51.008;4.300;2023-07-22T11:49:28;23.90;99.90
19538;DHT22;9914;51.008;4.300;2023-07-22T11:52:03;24.20;99.90
19538;DHT22;9914;51.008;4.300;2023-07-22T11:54:32;24.20;99.90
19538;DHT22;9914;51.008;4.300;2023-07-22T11:57:19;24.20;99.90
19538;DHT22;9914;51.008;4.300;2023-07-22T11:59:46;24.00;99.90
19538;DHT22;9914;51.008;4.300;2023-07-22T12:02:21;24.00;99.90
19538;DHT22;9914;51.008;4.300;2023-07-22T12:04:58;24.00;99.90
19538;DHT22;9914;51.008;4.300;2023-07-22T12:07:30;24.30;99.90
19538;DHT22;9914;51.008;4.300;2023-07-22T12:09:59;24.60;99.90
19538;DHT22;9914;51.008;4.300;2023-07-22T12:12:41;24.60;99.90
19538;DHT22;9914;51.008;4.300;2023-07-22T12:15:12;24.60;99.90
19538;DHT22;9914;51.008;4.300;2023-07-22T12:20:22;24.50;99.90
19538;DHT22;9914;51.008;4.300;2023-07-22T12:22:48;24.50;99.90
19538;DHT22;9914;51.008;4.300;2023-07-22T12:25:14;24.60;99.90
19538;DHT22;9914;51.008;4.300;2023-07-22T12:27:40;24.70;99.90
19538;DHT22;9914;51.008;4.300;2023-07-22T12:30:06;24.50;99.90
19538;DHT22;9914;51.008;4.300;2023-07-22T12:32:33;24.80;99.90
19538;DHT22;9914;51.008;4.300;2023-07-22T12:34:58;24.90;99.90
19538;DHT22;9914;51.008;4.300;2023-07-22T12:37:25;25.00;99.90
19538;DHT22;9914;51.008;4.300;2023-07-22T12:39:51;25.20;99.90
19538;DHT22;9914;51.008;4.300;2023-07-22T12:42:17;25.30;99.90
19538;DHT22;9914;51.008;4.300;2023-07-22T12:44:42;25.40;99.90
19538;DHT22;9914;51.008;4.300;2023-07-22T12:47:08;25.60;99.90
19538;DHT22;9914;51.008;4.300;2023-07-22T12:49:33;25.70;99.90
19538;DHT22;9914;51.008;4.300;2023-07-22T12:51:59;26.00;99.90
19538;DHT22;9914;51.008;4.300;2023-07-22T12:54:30;26.20;99.90
19538;DHT22;9914;51.008;4.300;2023-07-22T12:56:56;25.90;99.90
19538;DHT22;9914;51.008;4.300;2023-07-22T12:59:22;25.50;99.90
19538;DHT22;9914;51.008;4.300;2023-07-22T13:01:48;25.10;99.90
19538;DHT22;9914;51.008;4.300;2023-07-22T13:04:13;24.90;99.90
19538;DHT22;9914;51.008;4.300;2023-07-22T13:06:39;24.70;99.90
19538;DHT22;9914;51.008;4.300;2023-07-22T13:09:05;24.50;99.90
19538;DHT22;9914;51.008;4.300;2023-07-22T13:11:30;24.40;99.90
19538;DHT22;9914;51.008;4.300;2023-07-22T13:13:56;24.50;99.90
19538;DHT22;9914;51.008;4.300;2023-07-22T13:16:21;24.30;99.90
19538;DHT22;9914;51.008;4.300;2023-07-22T13:18:47;24.50;99.90
19538;DHT22;9914;51.008;4.300;2023-07-22T13:21:13;24.80;99.90
19538;DHT22;9914;51.008;4.300;2023-07-22T13:23:38;25.00;99.90
19538;DHT22;9914;51.008;4.300;2023-07-22T13:26:04;25.20;99.90
19538;DHT22;9914;51.008;4.300;2023-07-22T13:28:29;25.40;99.90
19538;DHT22;9914;51.008;4.300;2023-07-22T13:30:55;25.50;99.90
19538;DHT22;9914;51.008;4.300;2023-07-22T13:33:21;25.70;99.90
19538;DHT22;9914;51.008;4.300;2023-07-22T13:35:47;25.90;99.90
19538;DHT22;9914;51.008;4.300;2023-07-22T13:38:12;25.70;99.90
19538;DHT22;9914;51.008;4.300;2023-07-22T13:40:38;25.20;99.90
19538;DHT22;9914;51.008;4.300;2023-07-22T13:43:04;25.00;99.90
19538;DHT22;9914;51.008;4.300;2023-07-22T13:45:29;25.00;99.90
19538;DHT22;9914;51.008;4.300;2023-07-22T13:47:55;24.90;99.90
19538;DHT22;9914;51.008;4.300;2023-07-22T13:50:20;24.90;99.90
19538;DHT22;9914;51.008;4.300;2023-07-22T13:52:46;24.70;99.90
19538;DHT22;9914;51.008;4.300;2023-07-22T13:55:11;24.40;99.90
19538;DHT22;9914;51.008;4.300;2023-07-22T13:57:37;24.20;99.90
19538;DHT22;9914;51.008;4.300;2023-07-22T14:00:03;24.10;99.90
19538;DHT22;9914;51.008;4.300;2023-07-22T14:02:36;24.10;99.90
19538;DHT22;9914;51.008;4.300;2023-07-22T14:05:02;23.90;99.90
19538;DHT22;9914;51.008;4.300;2023-07-22T14:07:28;23.60;99.90
19538;DHT22;9914;51.008;4.300;2023-07-22T14:09:54;23.40;99.90
19538;DHT22;9914;51.008;4.300;2023-07-22T14:12:20;23.20;99.90
19538;DHT22;9914;51.008;4.300;2023-07-22T14:14:45;22.90;99.90
19538;DHT22;9914;51.008;4.300;2023-07-22T14:17:11;22.70;99.90
19538;DHT22;9914;51.008;4.300;2023-07-22T14:19:37;22.60;99.90
19538;DHT22;9914;51.008;4.300;2023-07-22T14:22:02;22.50;99.90
19538;DHT22;9914;51.008;4.300;2023-07-22T14:24:31;22.60;99.90
19538;DHT22;9914;51.008;4.300;2023-07-22T14:26:56;22.50;99.90
19538;DHT22;9914;51.008;4.300;2023-07-22T14:29:22;22.60;99.90
19538;DHT22;9914;51.008;4.300;2023-07-22T14:31:48;22.70;99.90
19538;DHT22;9914;51.008;4.300;2023-07-22T14:34:13;22.70;99.90
19538;DHT22;9914;51.008;4.300;2023-07-22T14:36:39;22.80;99.90
19538;DHT22;9914;51.008;4.300;2023-07-22T14:39:04;22.80;99.90
19538;DHT22;9914;51.008;4.300;2023-07-22T14:41:30;23.00;99.90
19538;DHT22;9914;51.008;4.300;2023-07-22T14:43:56;23.10;99.90
19538;DHT22;9914;51.008;4.300;2023-07-22T14:46:22;23.20;99.90
19538;DHT22;9914;51.008;4.300;2023-07-22T14:48:48;23.20;99.90
19538;DHT22;9914;51.008;4.300;2023-07-22T14:51:13;23.20;99.90
19538;DHT22;9914;51.008;4.300;2023-07-22T14:53:39;23.30;99.90
19538;DHT22;9914;51.008;4.300;2023-07-22T14:56:05;23.20;99.90
19538;DHT22;9914;51.008;4.300;2023-07-22T14:58:34;23.30;99.90
19538;DHT22;9914;51.008;4.300;2023-07-22T15:01:00;23.60;99.90
19538;DHT22;9914;51.008;4.300;2023-07-22T15:03:25;23.90;99.90
19538;DHT22;9914;51.008;4.300;2023-07-22T15:05:51;24.00;99.90
19538;DHT22;9914;51.008;4.300;2023-07-22T15:08:17;24.00;99.90
19538;DHT22;9914;51.008;4.300;2023-07-22T15:10:43;24.00;99.90
19538;DHT22;9914;51.008;4.300;2023-07-22T15:13:08;23.90;99.90
19538;DHT22;9914;51.008;4.300;2023-07-22T15:15:34;24.00;99.90
19538;DHT22;9914;51.008;4.300;2023-07-22T15:17:59;24.10;99.90
19538;DHT22;9914;51.008;4.300;2023-07-22T15:20:25;24.00;99.90
19538;DHT22;9914;51.008;4.300;2023-07-22T15:22:51;24.10;99.90
19538;DHT22;9914;51.008;4.300;2023-07-22T15:25:17;24.20;99.90
19538;DHT22;9914;51.008;4.300;2023-07-22T15:27:43;24.30;99.90
19538;DHT22;9914;51.008;4.300;2023-07-22T15:30:09;24.40;99.90
19538;DHT22;9914;51.008;4.300;2023-07-22T15:32:36;24.50;99.90
19538;DHT22;9914;51.008;4.300;2023-07-22T15:35:02;24.20;99.90
19538;DHT22;9914;51.008;4.300;2023-07-22T15:37:27;24.10;99.90
19538;DHT22;9914;51.008;4.300;2023-07-22T15:39:53;24.00;99.90
19538;DHT22;9914;51.008;4.300;2023-07-22T15:42:18;24.10;99.90
19538;DHT22;9914;51.008;4.300;2023-07-22T15:44:44;24.10;99.90
19538;DHT22;9914;51.008;4.300;2023-07-22T15:47:09;24.20;99.90
19538;DHT22;9914;51.008;4.300;2023-07-22T15:49:35;24.20;99.90
19538;DHT22;9914;51.008;4.300;2023-07-22T15:52:01;24.30;99.90
19538;DHT22;9914;51.008;4.300;2023-07-22T15:54:27;24.10;99.90
19538;DHT22;9914;51.008;4.300;2023-07-22T15:56:53;24.00;99.90